Station Historical Data
Daily Summary for February 8, 2017 Units:  Both    English   Metric
« Previous Day
Next Day »
Daily Weekly Monthly Yearly Custom
  High: Low: Average:
Temperature: 51.5 °F /  10.8 °C 20.7 °F /  -6.3 °C 32.9 °F /  0.5 °C
Dew Point: 47.1 °F /  8.4 °C 17.4 °F /  -8.1 °C 27.2 °F /  -2.7 °C
Humidity: 94% 66% 80%
Wind Speed: 29.0mph /  46.7km/h - 6.1mph /  9.8km/h
Wind Gust: 31.0mph /  49.9km/h - -
Wind- - WSW
Pressure: 29.90 in /  1012.4 hPa 29.33 in /  993.1 hPa -
Precipitation: 0.00 in /  0 mm    
Historical Graphs
 
 
Tabular Data for February 8, 2017
Time Temperature Dew Point Pressure Wind Wind Speed Wind Gust Humidity Rainfall Rate (Hourly)
00:04 51.5 °F /  10.8 °C 47.1 °F /  8.4 °C 29.33in /  993.1hPa WSW 15.0mph /  24.1km/h 29.0mph /  46.7km/h 85% 0.01in /  0.25mm
00:09 50.8 °F /  10.4 °C 46.5 °F /  8.1 °C 29.33in /  993.1hPa WSW 16.0mph /  25.7km/h 31.0mph /  49.9km/h 85% 0.01in /  0.25mm
00:14 50.1 °F /  10.1 °C 45.8 °F /  7.7 °C 29.33in /  993.1hPa SW 16.0mph /  25.7km/h 31.0mph /  49.9km/h 85% 0.01in /  0.25mm
00:19 49.2 °F /  9.6 °C 45.2 °F /  7.3 °C 29.33in /  993.1hPa SW 14.0mph /  22.5km/h 27.0mph /  43.5km/h 86% 0.01in /  0.25mm
00:24 48.4 °F /  9.1 °C 44.4 °F /  6.9 °C 29.34in /  993.5hPa WSW 13.0mph /  20.9km/h 26.0mph /  41.8km/h 86% 0.01in /  0.25mm
00:29 47.6 °F /  8.7 °C 43.6 °F /  6.4 °C 29.35in /  993.8hPa SW 10.0mph /  16.1km/h 26.0mph /  41.8km/h 86% 0.01in /  0.25mm
00:34 46.7 °F /  8.2 °C 43.0 °F /  6.1 °C 29.34in /  993.5hPa SW 10.0mph /  16.1km/h 22.0mph /  35.4km/h 87% 0.01in /  0.25mm
00:39 46.1 °F /  7.8 °C 42.7 °F /  5.9 °C 29.35in /  993.8hPa SW 29.0mph /  46.7km/h 29.0mph /  46.7km/h 88% 0.00in /  0mm
00:44 45.6 °F /  7.6 °C 42.3 °F /  5.7 °C 29.36in /  994.1hPa SW 19.0mph /  30.6km/h 29.0mph /  46.7km/h 88% 0.00in /  0mm
00:49 45.1 °F /  7.3 °C 41.8 °F /  5.4 °C 29.35in /  993.8hPa SW 9.0mph /  14.5km/h 25.0mph /  40.2km/h 88% 0.00in /  0mm
00:54 44.7 °F /  7.1 °C 41.7 °F /  5.4 °C 29.36in /  994.1hPa SW 9.0mph /  14.5km/h 23.0mph /  37km/h 89% 0.00in /  0mm
00:59 44.4 °F /  6.9 °C 41.4 °F /  5.2 °C 29.37in /  994.5hPa WSW 11.0mph /  17.7km/h 22.0mph /  35.4km/h 89% 0.00in /  0mm
01:04 44.0 °F /  6.7 °C 41.0 °F /  5 °C 29.36in /  994.1hPa WSW 13.0mph /  20.9km/h 23.0mph /  37km/h 89% 0.00in /  0mm
01:09 43.8 °F /  6.6 °C 40.8 °F /  4.9 °C 29.37in /  994.5hPa SW 13.0mph /  20.9km/h 23.0mph /  37km/h 89% 0.00in /  0mm
01:14 43.5 °F /  6.4 °C 40.5 °F /  4.7 °C 29.38in /  994.8hPa SW 12.0mph /  19.3km/h 26.0mph /  41.8km/h 89% 0.00in /  0mm
01:19 43.2 °F /  6.2 °C 40.5 °F /  4.7 °C 29.37in /  994.5hPa SW 12.0mph /  19.3km/h 28.0mph /  45.1km/h 90% 0.00in /  0mm
01:24 42.9 °F /  6.1 °C 40.2 °F /  4.6 °C 29.38in /  994.8hPa SW 12.0mph /  19.3km/h 28.0mph /  45.1km/h 90% 0.00in /  0mm
01:29 42.6 °F /  5.9 °C 39.9 °F /  4.4 °C 29.39in /  995.1hPa WSW 12.0mph /  19.3km/h 22.0mph /  35.4km/h 90% 0.00in /  0mm
01:34 42.3 °F /  5.7 °C 39.6 °F /  4.2 °C 29.39in /  995.1hPa SSW 9.0mph /  14.5km/h 20.0mph /  32.2km/h 90% 0.00in /  0mm
01:39 42.1 °F /  5.6 °C 39.7 °F /  4.3 °C 29.39in /  995.1hPa WSW 9.0mph /  14.5km/h 24.0mph /  38.6km/h 91% 0.01in /  0.25mm
01:44 41.8 °F /  5.4 °C 39.4 °F /  4.1 °C 29.40in /  995.5hPa WSW 13.0mph /  20.9km/h 21.0mph /  33.8km/h 91% 0.01in /  0.25mm
01:49 41.5 °F /  5.3 °C 39.1 °F /  3.9 °C 29.40in /  995.5hPa WSW 12.0mph /  19.3km/h 22.0mph /  35.4km/h 91% 0.01in /  0.25mm
01:54 41.3 °F /  5.2 °C 38.9 °F /  3.8 °C 29.41in /  995.8hPa SW 20.0mph /  32.2km/h 23.0mph /  37km/h 91% 0.01in /  0.25mm
01:59 41.1 °F /  5.1 °C 39.0 °F /  3.9 °C 29.41in /  995.8hPa SW 15.0mph /  24.1km/h 22.0mph /  35.4km/h 92% 0.01in /  0.25mm
02:04 40.8 °F /  4.9 °C 38.7 °F /  3.7 °C 29.42in /  996.2hPa SW 11.0mph /  17.7km/h 24.0mph /  38.6km/h 92% 0.01in /  0.25mm
02:09 40.4 °F /  4.7 °C 38.3 °F /  3.5 °C 29.42in /  996.2hPa WSW 13.0mph /  20.9km/h 24.0mph /  38.6km/h 92% 0.01in /  0.25mm
02:14 40.1 °F /  4.5 °C 38.0 °F /  3.3 °C 29.42in /  996.2hPa WSW 13.0mph /  20.9km/h 24.0mph /  38.6km/h 92% 0.01in /  0.25mm
02:19 39.9 °F /  4.4 °C 37.8 °F /  3.2 °C 29.42in /  996.2hPa WSW 12.0mph /  19.3km/h 25.0mph /  40.2km/h 92% 0.01in /  0.25mm
02:24 39.8 °F /  4.3 °C 37.7 °F /  3.2 °C 29.43in /  996.5hPa WSW 11.0mph /  17.7km/h 25.0mph /  40.2km/h 92% 0.01in /  0.25mm
02:29 39.6 °F /  4.2 °C 37.5 °F /  3.1 °C 29.44in /  996.8hPa WSW 10.0mph /  16.1km/h 19.0mph /  30.6km/h 92% 0.01in /  0.25mm
02:34 39.4 °F /  4.1 °C 37.3 °F /  2.9 °C 29.44in /  996.8hPa SW 9.0mph /  14.5km/h 23.0mph /  37km/h 92% 0.01in /  0.25mm
02:39 39.2 °F /  4 °C 37.3 °F /  2.9 °C 29.45in /  997.2hPa WSW 12.0mph /  19.3km/h 23.0mph /  37km/h 93% 0.00in /  0mm
02:44 39.1 °F /  3.9 °C 37.2 °F /  2.9 °C 29.45in /  997.2hPa West 12.0mph /  19.3km/h 19.0mph /  30.6km/h 93% 0.00in /  0mm
02:49 39.0 °F /  3.9 °C 37.1 °F /  2.8 °C 29.45in /  997.2hPa West 10.0mph /  16.1km/h 18.0mph /  29km/h 93% 0.00in /  0mm
02:54 38.9 °F /  3.8 °C 37.0 °F /  2.8 °C 29.45in /  997.2hPa WSW 14.0mph /  22.5km/h 21.0mph /  33.8km/h 93% 0.00in /  0mm
02:59 38.9 °F /  3.8 °C 37.0 °F /  2.8 °C 29.45in /  997.2hPa WSW 15.0mph /  24.1km/h 19.0mph /  30.6km/h 93% 0.00in /  0mm
03:04 38.9 °F /  3.8 °C 37.0 °F /  2.8 °C 29.45in /  997.2hPa SW 7.0mph /  11.3km/h 25.0mph /  40.2km/h 93% 0.00in /  0mm
03:09 38.9 °F /  3.8 °C 37.0 °F /  2.8 °C 29.46in /  997.5hPa WSW 10.0mph /  16.1km/h 25.0mph /  40.2km/h 93% 0.00in /  0mm
03:14 38.7 °F /  3.7 °C 36.9 °F /  2.7 °C 29.46in /  997.5hPa WSW 10.0mph /  16.1km/h 19.0mph /  30.6km/h 93% 0.01in /  0.25mm
03:19 38.5 °F /  3.6 °C 36.7 °F /  2.6 °C 29.47in /  997.9hPa WSW 11.0mph /  17.7km/h 24.0mph /  38.6km/h 93% 0.01in /  0.25mm
03:24 38.4 °F /  3.6 °C 36.6 °F /  2.6 °C 29.47in /  997.9hPa WSW 10.0mph /  16.1km/h 24.0mph /  38.6km/h 93% 0.01in /  0.25mm
03:29 38.3 °F /  3.5 °C 36.5 °F /  2.5 °C 29.47in /  997.9hPa WSW 9.0mph /  14.5km/h 21.0mph /  33.8km/h 93% 0.01in /  0.25mm
03:34 38.2 °F /  3.4 °C 36.4 °F /  2.4 °C 29.48in /  998.2hPa WSW 10.0mph /  16.1km/h 21.0mph /  33.8km/h 93% 0.01in /  0.25mm
03:39 38.3 °F /  3.5 °C 36.5 °F /  2.5 °C 29.49in /  998.5hPa WSW 15.0mph /  24.1km/h 22.0mph /  35.4km/h 93% 0.01in /  0.25mm
03:44 38.2 °F /  3.4 °C 36.4 °F /  2.4 °C 29.49in /  998.5hPa West 9.0mph /  14.5km/h 21.0mph /  33.8km/h 93% 0.01in /  0.25mm
03:49 38.1 °F /  3.4 °C 36.3 °F /  2.4 °C 29.50in /  998.9hPa SW 16.0mph /  25.7km/h 21.0mph /  33.8km/h 93% 0.01in /  0.25mm
03:54 38.1 °F /  3.4 °C 36.5 °F /  2.5 °C 29.50in /  998.9hPa WSW 16.0mph /  25.7km/h 20.0mph /  32.2km/h 94% 0.01in /  0.25mm
03:59 38.0 °F /  3.3 °C 36.4 °F /  2.4 °C 29.51in /  999.2hPa WSW 5.0mph /  8km/h 18.0mph /  29km/h 94% 0.01in /  0.25mm
04:04 37.9 °F /  3.3 °C 36.1 °F /  2.3 °C 29.51in /  999.2hPa West 13.0mph /  20.9km/h 18.0mph /  29km/h 93% 0.01in /  0.25mm
04:09 37.8 °F /  3.2 °C 36.0 °F /  2.2 °C 29.52in /  999.5hPa SW 18.0mph /  29km/h 18.0mph /  29km/h 93% 0.02in /  0.51mm
04:14 37.7 °F /  3.2 °C 35.9 °F /  2.2 °C 29.52in /  999.5hPa WSW 10.0mph /  16.1km/h 21.0mph /  33.8km/h 93% 0.01in /  0.25mm
04:19 37.5 °F /  3.1 °C 35.7 °F /  2.1 °C 29.53in /  999.9hPa WSW 8.0mph /  12.9km/h 21.0mph /  33.8km/h 93% 0.01in /  0.25mm
04:24 37.5 °F /  3.1 °C 35.9 °F /  2.2 °C 29.54in /  1000.2hPa West 7.0mph /  11.3km/h 15.0mph /  24.1km/h 94% 0.01in /  0.25mm
04:29 37.5 °F /  3.1 °C 35.9 °F /  2.2 °C 29.54in /  1000.2hPa West 6.0mph /  9.7km/h 15.0mph /  24.1km/h 94% 0.01in /  0.25mm
04:34 37.7 °F /  3.2 °C 36.1 °F /  2.3 °C 29.55in /  1000.6hPa West 5.0mph /  8km/h 12.0mph /  19.3km/h 94% 0.01in /  0.25mm
04:39 38.0 °F /  3.3 °C 36.4 °F /  2.4 °C 29.56in /  1000.9hPa West 7.0mph /  11.3km/h 17.0mph /  27.4km/h 94% 0.01in /  0.25mm
04:44 38.0 °F /  3.3 °C 36.2 °F /  2.3 °C 29.56in /  1000.9hPa WSW 9.0mph /  14.5km/h 20.0mph /  32.2km/h 93% 0.01in /  0.25mm
04:49 38.0 °F /  3.3 °C 36.2 °F /  2.3 °C 29.57in /  1001.2hPa WSW 6.0mph /  9.7km/h 15.0mph /  24.1km/h 93% 0.02in /  0.51mm
04:54 37.9 °F /  3.3 °C 36.1 °F /  2.3 °C 29.58in /  1001.6hPa WSW 12.0mph /  19.3km/h 20.0mph /  32.2km/h 93% 0.02in /  0.51mm
04:59 37.7 °F /  3.2 °C 35.9 °F /  2.2 °C 29.58in /  1001.6hPa NW 9.0mph /  14.5km/h 16.0mph /  25.7km/h 93% 0.02in /  0.51mm
05:04 37.7 °F /  3.2 °C 35.6 °F /  2 °C 29.58in /  1001.6hPa WSW 9.0mph /  14.5km/h 13.0mph /  20.9km/h 92% 0.02in /  0.51mm
05:09 37.7 °F /  3.2 °C 35.3 °F /  1.8 °C 29.58in /  1001.6hPa West 10.0mph /  16.1km/h 13.0mph /  20.9km/h 91% 0.01in /  0.25mm
05:14 37.8 °F /  3.2 °C 35.4 °F /  1.9 °C 29.58in /  1001.6hPa WSW 8.0mph /  12.9km/h 14.0mph /  22.5km/h 91% 0.01in /  0.25mm
05:19 37.8 °F /  3.2 °C 35.1 °F /  1.7 °C 29.59in /  1001.9hPa West 6.0mph /  9.7km/h 15.0mph /  24.1km/h 90% 0.01in /  0.25mm
05:24 37.9 °F /  3.3 °C 34.9 °F /  1.6 °C 29.59in /  1001.9hPa West 6.0mph /  9.7km/h 15.0mph /  24.1km/h 89% 0.01in /  0.25mm
05:29 38.0 °F /  3.3 °C 34.8 °F /  1.6 °C 29.60in /  1002.3hPa West 8.0mph /  12.9km/h 17.0mph /  27.4km/h 88% 0.01in /  0.25mm
05:34 38.0 °F /  3.3 °C 34.2 °F /  1.2 °C 29.60in /  1002.3hPa West 9.0mph /  14.5km/h 17.0mph /  27.4km/h 86% 0.01in /  0.25mm
05:39 38.2 °F /  3.4 °C 34.1 °F /  1.2 °C 29.60in /  1002.3hPa West 9.0mph /  14.5km/h 20.0mph /  32.2km/h 85% 0.01in /  0.25mm
05:44 38.1 °F /  3.4 °C 34.0 °F /  1.1 °C 29.61in /  1002.6hPa West 8.0mph /  12.9km/h 20.0mph /  32.2km/h 85% 0.01in /  0.25mm
05:49 38.2 °F /  3.4 °C 34.1 °F /  1.2 °C 29.61in /  1002.6hPa West 9.0mph /  14.5km/h 17.0mph /  27.4km/h 85% 0.00in /  0mm
05:54 38.2 °F /  3.4 °C 34.1 °F /  1.2 °C 29.61in /  1002.6hPa WSW 8.0mph /  12.9km/h 16.0mph /  25.7km/h 85% 0.00in /  0mm
05:59 38.1 °F /  3.4 °C 34.0 °F /  1.1 °C 29.62in /  1002.9hPa SW 7.0mph /  11.3km/h 13.0mph /  20.9km/h 85% 0.00in /  0mm
06:04 38.1 °F /  3.4 °C 34.0 °F /  1.1 °C 29.62in /  1002.9hPa West 10.0mph /  16.1km/h 17.0mph /  27.4km/h 85% 0.00in /  0mm
06:09 38.0 °F /  3.3 °C 33.6 °F /  0.9 °C 29.62in /  1002.9hPa NW 9.0mph /  14.5km/h 24.0mph /  38.6km/h 84% 0.00in /  0mm
06:14 38.0 °F /  3.3 °C 33.6 °F /  0.9 °C 29.63in /  1003.3hPa West 4.0mph /  6.4km/h 17.0mph /  27.4km/h 84% 0.00in /  0mm
06:19 37.9 °F /  3.3 °C 33.5 °F /  0.8 °C 29.63in /  1003.3hPa WNW 3.0mph /  4.8km/h 12.0mph /  19.3km/h 84% 0.00in /  0mm
06:24 37.8 °F /  3.2 °C 33.4 °F /  0.8 °C 29.64in /  1003.6hPa WNW 7.0mph /  11.3km/h 16.0mph /  25.7km/h 84% 0.00in /  0mm
06:29 37.6 °F /  3.1 °C 33.2 °F /  0.7 °C 29.65in /  1003.9hPa WNW 9.0mph /  14.5km/h 20.0mph /  32.2km/h 84% 0.00in /  0mm
06:34 37.1 °F /  2.8 °C 32.4 °F /  0.2 °C 29.65in /  1003.9hPa WNW 10.0mph /  16.1km/h 20.0mph /  32.2km/h 83% 0.00in /  0mm
06:39 36.8 °F /  2.7 °C 32.4 °F /  0.2 °C 29.66in /  1004.3hPa West 10.0mph /  16.1km/h 21.0mph /  33.8km/h 84% 0.00in /  0mm
06:44 36.6 °F /  2.6 °C 32.2 °F /  0.1 °C 29.66in /  1004.3hPa West 10.0mph /  16.1km/h 21.0mph /  33.8km/h 84% 0.00in /  0mm
06:49 36.4 °F /  2.4 °C 32.0 °F /  0 °C 29.67in /  1004.6hPa WNW 6.0mph /  9.7km/h 14.0mph /  22.5km/h 84% 0.00in /  0mm
06:54 36.3 °F /  2.4 °C 32.2 °F /  0.1 °C 29.67in /  1004.6hPa WSW 6.0mph /  9.7km/h 16.0mph /  25.7km/h 85% 0.00in /  0mm
06:59 36.2 °F /  2.3 °C 32.1 °F /  0.1 °C 29.67in /  1004.6hPa West 6.0mph /  9.7km/h 16.0mph /  25.7km/h 85% 0.00in /  0mm
07:04 36.1 °F /  2.3 °C 32.3 °F /  0.2 °C 29.68in /  1005hPa West 6.0mph /  9.7km/h 14.0mph /  22.5km/h 86% 0.00in /  0mm
07:09 35.9 °F /  2.2 °C 32.1 °F /  0.1 °C 29.68in /  1005hPa West 7.0mph /  11.3km/h 14.0mph /  22.5km/h 86% 0.00in /  0mm
07:14 35.9 °F /  2.2 °C 32.1 °F /  0.1 °C 29.68in /  1005hPa NW 3.0mph /  4.8km/h 9.0mph /  14.5km/h 86% 0.00in /  0mm
07:19 35.6 °F /  2 °C 31.5 °F /  -0.3 °C 29.69in /  1005.3hPa NNW 5.0mph /  8km/h 9.0mph /  14.5km/h 85% 0.00in /  0mm
07:24 35.5 °F /  1.9 °C 31.4 °F /  -0.3 °C 29.69in /  1005.3hPa WNW 4.0mph /  6.4km/h 14.0mph /  22.5km/h 85% 0.00in /  0mm
07:29 35.4 °F /  1.9 °C 31.3 °F /  -0.4 °C 29.70in /  1005.6hPa WNW 5.0mph /  8km/h 13.0mph /  20.9km/h 85% 0.00in /  0mm
07:34 35.2 °F /  1.8 °C 30.6 °F /  -0.8 °C 29.70in /  1005.6hPa WNW 7.0mph /  11.3km/h 13.0mph /  20.9km/h 83% 0.00in /  0mm
07:39 35.0 °F /  1.7 °C 30.4 °F /  -0.9 °C 29.71in /  1006hPa WNW 7.0mph /  11.3km/h 13.0mph /  20.9km/h 83% 0.00in /  0mm
07:44 34.7 °F /  1.5 °C 29.5 °F /  -1.4 °C 29.71in /  1006hPa WNW 7.0mph /  11.3km/h 18.0mph /  29km/h 81% 0.00in /  0mm
07:49 34.5 °F /  1.4 °C 29.6 °F /  -1.3 °C 29.72in /  1006.3hPa WNW 7.0mph /  11.3km/h 18.0mph /  29km/h 82% 0.00in /  0mm
07:54 34.4 °F /  1.3 °C 29.5 °F /  -1.4 °C 29.72in /  1006.3hPa WNW 6.0mph /  9.7km/h 14.0mph /  22.5km/h 82% 0.00in /  0mm
07:59 34.2 °F /  1.2 °C 29.3 °F /  -1.5 °C 29.73in /  1006.7hPa NNW 4.0mph /  6.4km/h 10.0mph /  16.1km/h 82% 0.00in /  0mm
08:04 33.8 °F /  1 °C 28.3 °F /  -2.1 °C 29.73in /  1006.7hPa WNW 2.0mph /  3.2km/h 13.0mph /  20.9km/h 80% 0.00in /  0mm
08:09 33.5 °F /  0.8 °C 27.7 °F /  -2.4 °C 29.74in /  1007hPa NW 6.0mph /  9.7km/h 13.0mph /  20.9km/h 79% 0.00in /  0mm
08:14 33.4 °F /  0.8 °C 27.3 °F /  -2.6 °C 29.74in /  1007hPa WSW 7.0mph /  11.3km/h 14.0mph /  22.5km/h 78% 0.00in /  0mm
08:19 33.3 °F /  0.7 °C 27.5 °F /  -2.5 °C 29.75in /  1007.3hPa NW 6.0mph /  9.7km/h 12.0mph /  19.3km/h 79% 0.00in /  0mm
08:24 33.2 °F /  0.7 °C 27.1 °F /  -2.7 °C 29.75in /  1007.3hPa NNW 5.0mph /  8km/h 11.0mph /  17.7km/h 78% 0.00in /  0mm
08:29 32.9 °F /  0.5 °C 26.5 °F /  -3.1 °C 29.75in /  1007.3hPa NW 2.0mph /  3.2km/h 14.0mph /  22.5km/h 77% 0.00in /  0mm
08:34 32.7 °F /  0.4 °C 26.0 °F /  -3.3 °C 29.76in /  1007.7hPa NW 11.0mph /  17.7km/h 12.0mph /  19.3km/h 76% 0.00in /  0mm
08:39 32.5 °F /  0.3 °C 25.8 °F /  -3.4 °C 29.76in /  1007.7hPa WNW 6.0mph /  9.7km/h 12.0mph /  19.3km/h 76% 0.00in /  0mm
08:44 32.4 °F /  0.2 °C 25.7 °F /  -3.5 °C 29.76in /  1007.7hPa WNW 6.0mph /  9.7km/h 12.0mph /  19.3km/h 76% 0.00in /  0mm
08:49 32.4 °F /  0.2 °C 25.7 °F /  -3.5 °C 29.76in /  1007.7hPa WNW 5.0mph /  8km/h 12.0mph /  19.3km/h 76% 0.00in /  0mm
08:54 32.2 °F /  0.1 °C 25.2 °F /  -3.8 °C 29.76in /  1007.7hPa NW 6.0mph /  9.7km/h 15.0mph /  24.1km/h 75% 0.00in /  0mm
08:59 32.1 °F /  0.1 °C 25.1 °F /  -3.8 °C 29.77in /  1008hPa WNW 7.0mph /  11.3km/h 15.0mph /  24.1km/h 75% 0.00in /  0mm
09:04 32.1 °F /  0.1 °C 25.4 °F /  -3.7 °C 29.77in /  1008hPa WNW 12.0mph /  19.3km/h 16.0mph /  25.7km/h 76% 0.00in /  0mm
09:09 32.1 °F /  0.1 °C 25.1 °F /  -3.8 °C 29.77in /  1008hPa West 2.0mph /  3.2km/h 15.0mph /  24.1km/h 75% 0.00in /  0mm
09:14 32.3 °F /  0.2 °C 25.9 °F /  -3.4 °C 29.78in /  1008.4hPa NNW 5.0mph /  8km/h 10.0mph /  16.1km/h 77% 0.00in /  0mm
09:19 32.3 °F /  0.2 °C 25.3 °F /  -3.7 °C 29.78in /  1008.4hPa NW 7.0mph /  11.3km/h 12.0mph /  19.3km/h 75% 0.00in /  0mm
09:24 32.4 °F /  0.2 °C 25.7 °F /  -3.5 °C 29.78in /  1008.4hPa West 4.0mph /  6.4km/h 9.0mph /  14.5km/h 76% 0.00in /  0mm
09:29 32.5 °F /  0.3 °C 25.8 °F /  -3.4 °C 29.78in /  1008.4hPa NW 3.0mph /  4.8km/h 7.0mph /  11.3km/h 76% 0.00in /  0mm
09:34 32.6 °F /  0.3 °C 25.9 °F /  -3.4 °C 29.78in /  1008.4hPa West 2.0mph /  3.2km/h 6.0mph /  9.7km/h 76% 0.00in /  0mm
09:39 32.4 °F /  0.2 °C 25.7 °F /  -3.5 °C 29.78in /  1008.4hPa North 5.0mph /  8km/h 9.0mph /  14.5km/h 76% 0.00in /  0mm
09:44 32.1 °F /  0.1 °C 25.1 °F /  -3.8 °C 29.78in /  1008.4hPa NW 4.0mph /  6.4km/h 12.0mph /  19.3km/h 75% 0.00in /  0mm
09:49 32.0 °F /  0 °C 25.0 °F /  -3.9 °C 29.79in /  1008.7hPa NW 5.0mph /  8km/h 12.0mph /  19.3km/h 75% 0.00in /  0mm
09:54 32.1 °F /  0.1 °C 25.1 °F /  -3.8 °C 29.80in /  1009hPa NW 5.0mph /  8km/h 10.0mph /  16.1km/h 75% 0.00in /  0mm
09:59 32.1 °F /  0.1 °C 25.1 °F /  -3.8 °C 29.80in /  1009hPa NW 5.0mph /  8km/h 10.0mph /  16.1km/h 75% 0.00in /  0mm
10:04 32.2 °F /  0.1 °C 25.2 °F /  -3.8 °C 29.80in /  1009hPa NW 4.0mph /  6.4km/h 9.0mph /  14.5km/h 75% 0.00in /  0mm
10:09 32.2 °F /  0.1 °C 24.8 °F /  -4 °C 29.80in /  1009hPa NW 4.0mph /  6.4km/h 10.0mph /  16.1km/h 74% 0.00in /  0mm
10:14 32.4 °F /  0.2 °C 25.0 °F /  -3.9 °C 29.80in /  1009hPa NW 5.0mph /  8km/h 10.0mph /  16.1km/h 74% 0.00in /  0mm
10:19 32.5 °F /  0.3 °C 25.1 °F /  -3.8 °C 29.80in /  1009hPa North 2.0mph /  3.2km/h 10.0mph /  16.1km/h 74% 0.00in /  0mm
10:24 32.7 °F /  0.4 °C 25.3 °F /  -3.7 °C 29.81in /  1009.4hPa WNW 1.0mph /  1.6km/h 10.0mph /  16.1km/h 74% 0.00in /  0mm
10:29 32.7 °F /  0.4 °C 25.6 °F /  -3.6 °C 29.82in /  1009.7hPa West 8.0mph /  12.9km/h 9.0mph /  14.5km/h 75% 0.00in /  0mm
10:34 32.2 °F /  0.1 °C 24.8 °F /  -4 °C 29.82in /  1009.7hPa WSW 3.0mph /  4.8km/h 12.0mph /  19.3km/h 74% 0.00in /  0mm
10:39 32.1 °F /  0.1 °C 24.7 °F /  -4.1 °C 29.82in /  1009.7hPa West 2.0mph /  3.2km/h 11.0mph /  17.7km/h 74% 0.00in /  0mm
10:44 32.2 °F /  0.1 °C 25.5 °F /  -3.6 °C 29.83in /  1010hPa West 5.0mph /  8km/h 11.0mph /  17.7km/h 76% 0.00in /  0mm
10:49 32.0 °F /  0 °C 24.6 °F /  -4.1 °C 29.83in /  1010hPa WNW 4.0mph /  6.4km/h 10.0mph /  16.1km/h 74% 0.00in /  0mm
10:54 32.1 °F /  0.1 °C 25.1 °F /  -3.8 °C 29.83in /  1010hPa WNW 4.0mph /  6.4km/h 9.0mph /  14.5km/h 75% 0.00in /  0mm
10:59 32.1 °F /  0.1 °C 24.7 °F /  -4.1 °C 29.83in /  1010hPa WNW 4.0mph /  6.4km/h 9.0mph /  14.5km/h 74% 0.00in /  0mm
11:04 32.1 °F /  0.1 °C 24.7 °F /  -4.1 °C 29.83in /  1010hPa West 3.0mph /  4.8km/h 8.0mph /  12.9km/h 74% 0.00in /  0mm
11:09 32.2 °F /  0.1 °C 24.5 °F /  -4.2 °C 29.83in /  1010hPa WSW 6.0mph /  9.7km/h 10.0mph /  16.1km/h 73% 0.00in /  0mm
11:14 32.1 °F /  0.1 °C 24.1 °F /  -4.4 °C 29.84in /  1010.4hPa West 5.0mph /  8km/h 10.0mph /  16.1km/h 72% 0.00in /  0mm
11:19 32.0 °F /  0 °C 24.0 °F /  -4.4 °C 29.84in /  1010.4hPa West 5.0mph /  8km/h 10.0mph /  16.1km/h 72% 0.00in /  0mm
11:24 32.0 °F /  0 °C 24.0 °F /  -4.4 °C 29.84in /  1010.4hPa WSW 4.0mph /  6.4km/h 10.0mph /  16.1km/h 72% 0.00in /  0mm
11:29 32.3 °F /  0.2 °C 24.6 °F /  -4.1 °C 29.84in /  1010.4hPa WSW 3.0mph /  4.8km/h 8.0mph /  12.9km/h 73% 0.00in /  0mm
11:34 32.4 °F /  0.2 °C 24.0 °F /  -4.4 °C 29.84in /  1010.4hPa NNW 5.0mph /  8km/h 10.0mph /  16.1km/h 71% 0.00in /  0mm
11:39 32.1 °F /  0.1 °C 23.8 °F /  -4.6 °C 29.85in /  1010.7hPa West 5.0mph /  8km/h 9.0mph /  14.5km/h 71% 0.00in /  0mm
11:44 32.0 °F /  0 °C 23.7 °F /  -4.6 °C 29.84in /  1010.4hPa WNW 4.0mph /  6.4km/h 9.0mph /  14.5km/h 71% 0.00in /  0mm
11:49 32.1 °F /  0.1 °C 23.4 °F /  -4.8 °C 29.85in /  1010.7hPa WNW 5.0mph /  8km/h 10.0mph /  16.1km/h 70% 0.00in /  0mm
11:54 32.4 °F /  0.2 °C 24.4 °F /  -4.2 °C 29.85in /  1010.7hPa WNW 4.0mph /  6.4km/h 10.0mph /  16.1km/h 72% 0.00in /  0mm
11:59 32.4 °F /  0.2 °C 23.7 °F /  -4.6 °C 29.85in /  1010.7hPa WNW 4.0mph /  6.4km/h 9.0mph /  14.5km/h 70% 0.00in /  0mm
12:04 32.6 °F /  0.3 °C 23.6 °F /  -4.7 °C 29.85in /  1010.7hPa WSW 6.0mph /  9.7km/h 9.0mph /  14.5km/h 69% 0.00in /  0mm
12:09 32.8 °F /  0.4 °C 24.1 °F /  -4.4 °C 29.84in /  1010.4hPa WNW 3.0mph /  4.8km/h 7.0mph /  11.3km/h 70% 0.00in /  0mm
12:14 32.8 °F /  0.4 °C 23.4 °F /  -4.8 °C 29.84in /  1010.4hPa NW 4.0mph /  6.4km/h 7.0mph /  11.3km/h 68% 0.00in /  0mm
12:19 32.9 °F /  0.5 °C 23.5 °F /  -4.7 °C 29.84in /  1010.4hPa West 5.0mph /  8km/h 9.0mph /  14.5km/h 68% 0.00in /  0mm
12:24 32.9 °F /  0.5 °C 23.5 °F /  -4.7 °C 29.84in /  1010.4hPa West 5.0mph /  8km/h 9.0mph /  14.5km/h 68% 0.00in /  0mm
12:29 32.8 °F /  0.4 °C 23.0 °F /  -5 °C 29.84in /  1010.4hPa WNW 3.0mph /  4.8km/h 8.0mph /  12.9km/h 67% 0.00in /  0mm
12:34 33.8 °F /  1 °C 25.0 °F /  -3.9 °C 29.84in /  1010.4hPa NW 5.0mph /  8km/h 6.0mph /  9.7km/h 70% 0.00in /  0mm
12:39 33.9 °F /  1.1 °C 24.1 °F /  -4.4 °C 29.85in /  1010.7hPa WSW 5.0mph /  8km/h 10.0mph /  16.1km/h 67% 0.00in /  0mm
12:44 34.8 °F /  1.6 °C 25.7 °F /  -3.5 °C 29.85in /  1010.7hPa WNW 3.0mph /  4.8km/h 7.0mph /  11.3km/h 69% 0.00in /  0mm
12:49 35.5 °F /  1.9 °C 25.3 °F /  -3.7 °C 29.84in /  1010.4hPa NW 3.0mph /  4.8km/h 8.0mph /  12.9km/h 66% 0.00in /  0mm
12:54 34.7 °F /  1.5 °C 25.2 °F /  -3.8 °C 29.83in /  1010hPa NW 4.0mph /  6.4km/h 8.0mph /  12.9km/h 68% 0.00in /  0mm
12:59 34.6 °F /  1.4 °C 24.4 °F /  -4.2 °C 29.84in /  1010.4hPa NW 4.0mph /  6.4km/h 8.0mph /  12.9km/h 66% 0.00in /  0mm
13:04 34.2 °F /  1.2 °C 24.4 °F /  -4.2 °C 29.84in /  1010.4hPa NW 4.0mph /  6.4km/h 8.0mph /  12.9km/h 67% 0.00in /  0mm
13:09 34.1 °F /  1.2 °C 24.3 °F /  -4.3 °C 29.84in /  1010.4hPa NW 5.0mph /  8km/h 11.0mph /  17.7km/h 67% 0.00in /  0mm
13:14 33.4 °F /  0.8 °C 24.0 °F /  -4.4 °C 29.84in /  1010.4hPa NNW 2.0mph /  3.2km/h 10.0mph /  16.1km/h 68% 0.00in /  0mm
13:19 33.3 °F /  0.7 °C 23.9 °F /  -4.5 °C 29.84in /  1010.4hPa North 4.0mph /  6.4km/h 8.0mph /  12.9km/h 68% 0.00in /  0mm
13:24 33.2 °F /  0.7 °C 23.8 °F /  -4.6 °C 29.84in /  1010.4hPa NW 2.0mph /  3.2km/h 9.0mph /  14.5km/h 68% 0.00in /  0mm
13:29 33.1 °F /  0.6 °C 24.0 °F /  -4.4 °C 29.84in /  1010.4hPa NW 4.0mph /  6.4km/h 9.0mph /  14.5km/h 69% 0.00in /  0mm
13:34 33.2 °F /  0.7 °C 24.1 °F /  -4.4 °C 29.84in /  1010.4hPa WNW 4.0mph /  6.4km/h 9.0mph /  14.5km/h 69% 0.00in /  0mm
13:39 33.5 °F /  0.8 °C 24.4 °F /  -4.2 °C 29.84in /  1010.4hPa NW 6.0mph /  9.7km/h 7.0mph /  11.3km/h 69% 0.00in /  0mm
13:44 33.5 °F /  0.8 °C 24.4 °F /  -4.2 °C 29.84in /  1010.4hPa WNW 5.0mph /  8km/h 11.0mph /  17.7km/h 69% 0.00in /  0mm
13:49 33.1 °F /  0.6 °C 23.0 °F /  -5 °C 29.84in /  1010.4hPa NNW 2.0mph /  3.2km/h 8.0mph /  12.9km/h 66% 0.00in /  0mm
13:54 33.2 °F /  0.7 °C 23.8 °F /  -4.6 °C 29.84in /  1010.4hPa NW 4.0mph /  6.4km/h 9.0mph /  14.5km/h 68% 0.00in /  0mm
13:59 33.2 °F /  0.7 °C 24.1 °F /  -4.4 °C 29.84in /  1010.4hPa NW 4.0mph /  6.4km/h 10.0mph /  16.1km/h 69% 0.00in /  0mm
14:04 32.6 °F /  0.3 °C 23.2 °F /  -4.9 °C 29.84in /  1010.4hPa NNW 5.0mph /  8km/h 10.0mph /  16.1km/h 68% 0.00in /  0mm
14:09 32.4 °F /  0.2 °C 23.4 °F /  -4.8 °C 29.84in /  1010.4hPa NNW 5.0mph /  8km/h 10.0mph /  16.1km/h 69% 0.00in /  0mm
14:14 32.6 °F /  0.3 °C 23.6 °F /  -4.7 °C 29.84in /  1010.4hPa NW 5.0mph /  8km/h 11.0mph /  17.7km/h 69% 0.00in /  0mm
14:19 32.7 °F /  0.4 °C 23.3 °F /  -4.8 °C 29.84in /  1010.4hPa NW 4.0mph /  6.4km/h 11.0mph /  17.7km/h 68% 0.00in /  0mm
14:24 32.5 °F /  0.3 °C 22.8 °F /  -5.1 °C 29.84in /  1010.4hPa NW 4.0mph /  6.4km/h 9.0mph /  14.5km/h 67% 0.00in /  0mm
14:29 32.6 °F /  0.3 °C 23.2 °F /  -4.9 °C 29.84in /  1010.4hPa NNW 3.0mph /  4.8km/h 7.0mph /  11.3km/h 68% 0.00in /  0mm
14:34 32.5 °F /  0.3 °C 22.8 °F /  -5.1 °C 29.84in /  1010.4hPa NW 4.0mph /  6.4km/h 8.0mph /  12.9km/h 67% 0.00in /  0mm
14:39 32.5 °F /  0.3 °C 22.8 °F /  -5.1 °C 29.84in /  1010.4hPa NNW 5.0mph /  8km/h 6.0mph /  9.7km/h 67% 0.00in /  0mm
14:44 32.5 °F /  0.3 °C 23.8 °F /  -4.6 °C 29.85in /  1010.7hPa NW 5.0mph /  8km/h 9.0mph /  14.5km/h 70% 0.00in /  0mm
14:49 32.3 °F /  0.2 °C 24.6 °F /  -4.1 °C 29.85in /  1010.7hPa NW 6.0mph /  9.7km/h 10.0mph /  16.1km/h 73% 0.00in /  0mm
14:54 31.8 °F /  -0.1 °C 24.5 °F /  -4.2 °C 29.85in /  1010.7hPa NNW 4.0mph /  6.4km/h 8.0mph /  12.9km/h 74% 0.00in /  0mm
14:59 31.4 °F /  -0.3 °C 24.4 °F /  -4.2 °C 29.85in /  1010.7hPa NNW 3.0mph /  4.8km/h 10.0mph /  16.1km/h 75% 0.00in /  0mm
15:04 31.4 °F /  -0.3 °C 24.4 °F /  -4.2 °C 29.85in /  1010.7hPa NNW 4.0mph /  6.4km/h 9.0mph /  14.5km/h 75% 0.00in /  0mm
15:09 31.5 °F /  -0.3 °C 24.5 °F /  -4.2 °C 29.85in /  1010.7hPa NNW 4.0mph /  6.4km/h 10.0mph /  16.1km/h 75% 0.00in /  0mm
15:14 31.1 °F /  -0.5 °C 24.1 °F /  -4.4 °C 29.85in /  1010.7hPa NNW 4.0mph /  6.4km/h 10.0mph /  16.1km/h 75% 0.00in /  0mm
15:19 30.8 °F /  -0.7 °C 23.8 °F /  -4.6 °C 29.85in /  1010.7hPa NNW 4.0mph /  6.4km/h 9.0mph /  14.5km/h 75% 0.00in /  0mm
15:24 30.8 °F /  -0.7 °C 23.8 °F /  -4.6 °C 29.85in /  1010.7hPa NNW 3.0mph /  4.8km/h 8.0mph /  12.9km/h 75% 0.00in /  0mm
15:29 30.5 °F /  -0.8 °C 23.5 °F /  -4.7 °C 29.86in /  1011.1hPa North 3.0mph /  4.8km/h 9.0mph /  14.5km/h 75% 0.00in /  0mm
15:34 30.0 °F /  -1.1 °C 23.0 °F /  -5 °C 29.85in /  1010.7hPa North 4.0mph /  6.4km/h 9.0mph /  14.5km/h 75% 0.00in /  0mm
15:39 29.8 °F /  -1.2 °C 22.5 °F /  -5.3 °C 29.86in /  1011.1hPa North 3.0mph /  4.8km/h 6.0mph /  9.7km/h 74% 0.00in /  0mm
15:44 29.8 °F /  -1.2 °C 22.5 °F /  -5.3 °C 29.86in /  1011.1hPa NNE 4.0mph /  6.4km/h 7.0mph /  11.3km/h 74% 0.00in /  0mm
15:49 29.9 °F /  -1.2 °C 22.9 °F /  -5.1 °C 29.86in /  1011.1hPa North 5.0mph /  8km/h 6.0mph /  9.7km/h 75% 0.00in /  0mm
15:54 29.9 °F /  -1.2 °C 22.3 °F /  -5.4 °C 29.85in /  1010.7hPa NE 2.0mph /  3.2km/h 7.0mph /  11.3km/h 73% 0.00in /  0mm
15:59 30.1 °F /  -1.1 °C 22.5 °F /  -5.3 °C 29.86in /  1011.1hPa NNW 4.0mph /  6.4km/h 6.0mph /  9.7km/h 73% 0.00in /  0mm
16:04 30.0 °F /  -1.1 °C 22.4 °F /  -5.3 °C 29.85in /  1010.7hPa North 3.0mph /  4.8km/h 6.0mph /  9.7km/h 73% 0.00in /  0mm
16:09 30.2 °F /  -1 °C 22.9 °F /  -5.1 °C 29.85in /  1010.7hPa North 1.0mph /  1.6km/h 5.0mph /  8km/h 74% 0.00in /  0mm
16:14 30.1 °F /  -1.1 °C 22.8 °F /  -5.1 °C 29.85in /  1010.7hPa North 3.0mph /  4.8km/h 6.0mph /  9.7km/h 74% 0.00in /  0mm
16:19 30.0 °F /  -1.1 °C 22.4 °F /  -5.3 °C 29.86in /  1011.1hPa North 2.0mph /  3.2km/h 7.0mph /  11.3km/h 73% 0.00in /  0mm
16:24 29.9 °F /  -1.2 °C 22.3 °F /  -5.4 °C 29.86in /  1011.1hPa North 3.0mph /  4.8km/h 7.0mph /  11.3km/h 73% 0.00in /  0mm
16:29 29.7 °F /  -1.3 °C 22.1 °F /  -5.5 °C 29.86in /  1011.1hPa North 3.0mph /  4.8km/h 7.0mph /  11.3km/h 73% 0.00in /  0mm
16:34 29.7 °F /  -1.3 °C 22.1 °F /  -5.5 °C 29.86in /  1011.1hPa North 2.0mph /  3.2km/h 6.0mph /  9.7km/h 73% 0.00in /  0mm
16:39 29.7 °F /  -1.3 °C 22.1 °F /  -5.5 °C 29.86in /  1011.1hPa NNW 2.0mph /  3.2km/h 5.0mph /  8km/h 73% 0.00in /  0mm
16:44 29.7 °F /  -1.3 °C 22.4 °F /  -5.3 °C 29.86in /  1011.1hPa NNW 3.0mph /  4.8km/h 5.0mph /  8km/h 74% 0.00in /  0mm
16:49 29.7 °F /  -1.3 °C 22.1 °F /  -5.5 °C 29.86in /  1011.1hPa NNW 2.0mph /  3.2km/h 5.0mph /  8km/h 73% 0.00in /  0mm
16:54 29.5 °F /  -1.4 °C 21.9 °F /  -5.6 °C 29.86in /  1011.1hPa North 1.0mph /  1.6km/h 5.0mph /  8km/h 73% 0.00in /  0mm
16:59 29.5 °F /  -1.4 °C 22.2 °F /  -5.4 °C 29.86in /  1011.1hPa NW 5.0mph /  8km/h 5.0mph /  8km/h 74% 0.00in /  0mm
17:04 29.3 °F /  -1.5 °C 22.0 °F /  -5.6 °C 29.86in /  1011.1hPa North 3.0mph /  4.8km/h 5.0mph /  8km/h 74% 0.00in /  0mm
17:09 29.2 °F /  -1.6 °C 21.6 °F /  -5.8 °C 29.85in /  1010.7hPa NNW 3.0mph /  4.8km/h 5.0mph /  8km/h 73% 0.00in /  0mm
17:14 29.1 °F /  -1.6 °C 21.8 °F /  -5.7 °C 29.86in /  1011.1hPa NNW 2.0mph /  3.2km/h 4.0mph /  6.4km/h 74% 0.00in /  0mm
17:19 29.1 °F /  -1.6 °C 21.8 °F /  -5.7 °C 29.86in /  1011.1hPa NNW 2.0mph /  3.2km/h 4.0mph /  6.4km/h 74% 0.00in /  0mm
17:24 29.1 °F /  -1.6 °C 21.8 °F /  -5.7 °C 29.86in /  1011.1hPa North 2.0mph /  3.2km/h 4.0mph /  6.4km/h 74% 0.00in /  0mm
17:29 29.1 °F /  -1.6 °C 21.5 °F /  -5.8 °C 29.87in /  1011.4hPa NNW 2.0mph /  3.2km/h 6.0mph /  9.7km/h 73% 0.00in /  0mm
17:34 29.2 °F /  -1.6 °C 21.9 °F /  -5.6 °C 29.87in /  1011.4hPa NNW 2.0mph /  3.2km/h 6.0mph /  9.7km/h 74% 0.00in /  0mm
17:39 29.3 °F /  -1.5 °C 22.0 °F /  -5.6 °C 29.87in /  1011.4hPa NNW 2.0mph /  3.2km/h 5.0mph /  8km/h 74% 0.00in /  0mm
17:44 29.2 °F /  -1.6 °C 21.9 °F /  -5.6 °C 29.87in /  1011.4hPa NNW 3.0mph /  4.8km/h 5.0mph /  8km/h 74% 0.00in /  0mm
17:49 29.2 °F /  -1.6 °C 21.9 °F /  -5.6 °C 29.86in /  1011.1hPa NNE 2.0mph /  3.2km/h 6.0mph /  9.7km/h 74% 0.00in /  0mm
17:54 29.2 °F /  -1.6 °C 21.9 °F /  -5.6 °C 29.86in /  1011.1hPa NNW 3.0mph /  4.8km/h 6.0mph /  9.7km/h 74% 0.00in /  0mm
17:59 29.2 °F /  -1.6 °C 21.9 °F /  -5.6 °C 29.87in /  1011.4hPa NNW 2.0mph /  3.2km/h 6.0mph /  9.7km/h 74% 0.00in /  0mm
18:04 29.3 °F /  -1.5 °C 22.4 °F /  -5.3 °C 29.86in /  1011.1hPa NW 4.0mph /  6.4km/h 6.0mph /  9.7km/h 75% 0.00in /  0mm
18:09 29.3 °F /  -1.5 °C 22.4 °F /  -5.3 °C 29.86in /  1011.1hPa North 5.0mph /  8km/h 6.0mph /  9.7km/h 75% 0.00in /  0mm
18:14 29.3 °F /  -1.5 °C 22.4 °F /  -5.3 °C 29.87in /  1011.4hPa North 3.0mph /  4.8km/h 5.0mph /  8km/h 75% 0.00in /  0mm
18:19 29.3 °F /  -1.5 °C 22.4 °F /  -5.3 °C 29.87in /  1011.4hPa NW 4.0mph /  6.4km/h 6.0mph /  9.7km/h 75% 0.00in /  0mm
18:24 29.3 °F /  -1.5 °C 22.4 °F /  -5.3 °C 29.86in /  1011.1hPa North 4.0mph /  6.4km/h 6.0mph /  9.7km/h 75% 0.00in /  0mm
18:29 29.2 °F /  -1.6 °C 21.9 °F /  -5.6 °C 29.87in /  1011.4hPa NNW 3.0mph /  4.8km/h 7.0mph /  11.3km/h 74% 0.00in /  0mm
18:34 29.2 °F /  -1.6 °C 21.9 °F /  -5.6 °C 29.87in /  1011.4hPa NNW 4.0mph /  6.4km/h 7.0mph /  11.3km/h 74% 0.00in /  0mm
18:39 29.2 °F /  -1.6 °C 22.3 °F /  -5.4 °C 29.88in /  1011.7hPa NNW 2.0mph /  3.2km/h 7.0mph /  11.3km/h 75% 0.00in /  0mm
18:44 29.2 °F /  -1.6 °C 21.6 °F /  -5.8 °C 29.88in /  1011.7hPa NNW 2.0mph /  3.2km/h 6.0mph /  9.7km/h 73% 0.00in /  0mm
18:49 29.2 °F /  -1.6 °C 21.3 °F /  -5.9 °C 29.88in /  1011.7hPa NNW 3.0mph /  4.8km/h 7.0mph /  11.3km/h 72% 0.00in /  0mm
18:54 29.2 °F /  -1.6 °C 21.0 °F /  -6.1 °C 29.88in /  1011.7hPa NNW 3.0mph /  4.8km/h 7.0mph /  11.3km/h 71% 0.00in /  0mm
18:59 29.2 °F /  -1.6 °C 21.0 °F /  -6.1 °C 29.88in /  1011.7hPa NW 3.0mph /  4.8km/h 6.0mph /  9.7km/h 71% 0.00in /  0mm
19:04 29.1 °F /  -1.6 °C 20.5 °F /  -6.4 °C 29.88in /  1011.7hPa NW 1.0mph /  1.6km/h 6.0mph /  9.7km/h 70% 0.00in /  0mm
19:09 29.2 °F /  -1.6 °C 21.0 °F /  -6.1 °C 29.88in /  1011.7hPa Calm   3.0mph /  4.8km/h 71% 0.00in /  0mm
19:14 29.2 °F /  -1.6 °C 21.0 °F /  -6.1 °C 29.88in /  1011.7hPa WNW 1.0mph /  1.6km/h 5.0mph /  8km/h 71% 0.00in /  0mm
19:19 29.2 °F /  -1.6 °C 20.6 °F /  -6.3 °C 29.88in /  1011.7hPa NNW 3.0mph /  4.8km/h 7.0mph /  11.3km/h 70% 0.00in /  0mm
19:24 29.2 °F /  -1.6 °C 20.6 °F /  -6.3 °C 29.88in /  1011.7hPa NW 2.0mph /  3.2km/h 8.0mph /  12.9km/h 70% 0.00in /  0mm
19:29 29.2 °F /  -1.6 °C 20.6 °F /  -6.3 °C 29.88in /  1011.7hPa NW 4.0mph /  6.4km/h 11.0mph /  17.7km/h 70% 0.00in /  0mm
19:34 28.9 °F /  -1.7 °C 21.3 °F /  -5.9 °C 29.88in /  1011.7hPa NNW 6.0mph /  9.7km/h 14.0mph /  22.5km/h 73% 0.00in /  0mm
19:39 28.3 °F /  -2.1 °C 21.7 °F /  -5.7 °C 29.88in /  1011.7hPa North 8.0mph /  12.9km/h 15.0mph /  24.1km/h 76% 0.00in /  0mm
19:44 27.8 °F /  -2.3 °C 21.8 °F /  -5.7 °C 29.88in /  1011.7hPa North 7.0mph /  11.3km/h 15.0mph /  24.1km/h 78% 0.00in /  0mm
19:49 27.4 °F /  -2.6 °C 21.7 °F /  -5.7 °C 29.89in /  1012.1hPa North 5.0mph /  8km/h 12.0mph /  19.3km/h 79% 0.00in /  0mm
19:54 27.0 °F /  -2.8 °C 21.4 °F /  -5.9 °C 29.89in /  1012.1hPa NNE 5.0mph /  8km/h 11.0mph /  17.7km/h 79% 0.00in /  0mm
19:59 26.7 °F /  -2.9 °C 21.1 °F /  -6.1 °C 29.89in /  1012.1hPa NNE 5.0mph /  8km/h 10.0mph /  16.1km/h 79% 0.00in /  0mm
20:04 26.5 °F /  -3.1 °C 21.2 °F /  -6 °C 29.89in /  1012.1hPa North 6.0mph /  9.7km/h 10.0mph /  16.1km/h 80% 0.00in /  0mm
20:09 26.4 °F /  -3.1 °C 21.1 °F /  -6.1 °C 29.89in /  1012.1hPa NNW 6.0mph /  9.7km/h 8.0mph /  12.9km/h 80% 0.00in /  0mm
20:14 26.3 °F /  -3.2 °C 21.0 °F /  -6.1 °C 29.89in /  1012.1hPa NNW 4.0mph /  6.4km/h 8.0mph /  12.9km/h 80% 0.00in /  0mm
20:19 26.2 °F /  -3.2 °C 20.9 °F /  -6.2 °C 29.90in /  1012.4hPa NW 7.0mph /  11.3km/h 10.0mph /  16.1km/h 80% 0.00in /  0mm
20:24 26.1 °F /  -3.3 °C 20.5 °F /  -6.4 °C 29.90in /  1012.4hPa North 3.0mph /  4.8km/h 10.0mph /  16.1km/h 79% 0.00in /  0mm
20:29 26.0 °F /  -3.3 °C 20.4 °F /  -6.4 °C 29.90in /  1012.4hPa NNE 5.0mph /  8km/h 8.0mph /  12.9km/h 79% 0.00in /  0mm
20:34 25.9 °F /  -3.4 °C 20.3 °F /  -6.5 °C 29.90in /  1012.4hPa North 5.0mph /  8km/h 7.0mph /  11.3km/h 79% 0.00in /  0mm
20:39 25.8 °F /  -3.4 °C 20.5 °F /  -6.4 °C 29.89in /  1012.1hPa NNE 4.0mph /  6.4km/h 7.0mph /  11.3km/h 80% 0.00in /  0mm
20:44 25.8 °F /  -3.4 °C 20.5 °F /  -6.4 °C 29.90in /  1012.4hPa NNE 4.0mph /  6.4km/h 10.0mph /  16.1km/h 80% 0.00in /  0mm
20:49 25.8 °F /  -3.4 °C 20.5 °F /  -6.4 °C 29.89in /  1012.1hPa North 4.0mph /  6.4km/h 10.0mph /  16.1km/h 80% 0.00in /  0mm
20:54 25.7 °F /  -3.5 °C 20.4 °F /  -6.4 °C 29.90in /  1012.4hPa NNE 4.0mph /  6.4km/h 8.0mph /  12.9km/h 80% 0.00in /  0mm
20:59 25.7 °F /  -3.5 °C 20.4 °F /  -6.4 °C 29.90in /  1012.4hPa NNW 3.0mph /  4.8km/h 10.0mph /  16.1km/h 80% 0.00in /  0mm
21:04 25.6 °F /  -3.6 °C 20.0 °F /  -6.7 °C 29.90in /  1012.4hPa North 2.0mph /  3.2km/h 10.0mph /  16.1km/h 79% 0.00in /  0mm
21:09 25.4 °F /  -3.7 °C 19.8 °F /  -6.8 °C 29.90in /  1012.4hPa NW 8.0mph /  12.9km/h 9.0mph /  14.5km/h 79% 0.00in /  0mm
21:14 25.3 °F /  -3.7 °C 19.7 °F /  -6.8 °C 29.90in /  1012.4hPa North 3.0mph /  4.8km/h 9.0mph /  14.5km/h 79% 0.00in /  0mm
21:19 25.3 °F /  -3.7 °C 19.7 °F /  -6.8 °C 29.90in /  1012.4hPa NNW 3.0mph /  4.8km/h 8.0mph /  12.9km/h 79% 0.00in /  0mm
21:24 25.2 °F /  -3.8 °C 19.6 °F /  -6.9 °C 29.90in /  1012.4hPa NE 2.0mph /  3.2km/h 8.0mph /  12.9km/h 79% 0.00in /  0mm
21:29 25.0 °F /  -3.9 °C 19.4 °F /  -7 °C 29.90in /  1012.4hPa NNW 5.0mph /  8km/h 8.0mph /  12.9km/h 79% 0.00in /  0mm
21:34 25.0 °F /  -3.9 °C 19.4 °F /  -7 °C 29.90in /  1012.4hPa North 8.0mph /  12.9km/h 10.0mph /  16.1km/h 79% 0.00in /  0mm
21:39 24.9 °F /  -3.9 °C 19.3 °F /  -7.1 °C 29.90in /  1012.4hPa North 5.0mph /  8km/h 10.0mph /  16.1km/h 79% 0.00in /  0mm
21:44 24.7 °F /  -4.1 °C 19.1 °F /  -7.2 °C 29.90in /  1012.4hPa North 6.0mph /  9.7km/h 12.0mph /  19.3km/h 79% 0.00in /  0mm
21:49 24.6 °F /  -4.1 °C 19.0 °F /  -7.2 °C 29.90in /  1012.4hPa North 5.0mph /  8km/h 12.0mph /  19.3km/h 79% 0.00in /  0mm
21:54 24.5 °F /  -4.2 °C 18.9 °F /  -7.3 °C 29.90in /  1012.4hPa North 5.0mph /  8km/h 9.0mph /  14.5km/h 79% 0.00in /  0mm
21:59 24.5 °F /  -4.2 °C 18.9 °F /  -7.3 °C 29.89in /  1012.1hPa North 5.0mph /  8km/h 9.0mph /  14.5km/h 79% 0.00in /  0mm
22:04 24.5 °F /  -4.2 °C 18.9 °F /  -7.3 °C 29.90in /  1012.4hPa North 4.0mph /  6.4km/h 10.0mph /  16.1km/h 79% 0.00in /  0mm
22:09 24.4 °F /  -4.2 °C 18.8 °F /  -7.3 °C 29.89in /  1012.1hPa North 5.0mph /  8km/h 10.0mph /  16.1km/h 79% 0.00in /  0mm
22:14 24.3 °F /  -4.3 °C 18.7 °F /  -7.4 °C 29.89in /  1012.1hPa North 4.0mph /  6.4km/h 12.0mph /  19.3km/h 79% 0.00in /  0mm
22:19 24.2 °F /  -4.3 °C 18.6 °F /  -7.4 °C 29.90in /  1012.4hPa NNE 4.0mph /  6.4km/h 10.0mph /  16.1km/h 79% 0.00in /  0mm
22:24 24.2 °F /  -4.3 °C 18.3 °F /  -7.6 °C 29.89in /  1012.1hPa NNE 6.0mph /  9.7km/h 8.0mph /  12.9km/h 78% 0.00in /  0mm
22:29 24.0 °F /  -4.4 °C 18.1 °F /  -7.7 °C 29.90in /  1012.4hPa North 4.0mph /  6.4km/h 7.0mph /  11.3km/h 78% 0.00in /  0mm
22:34 24.0 °F /  -4.4 °C 18.1 °F /  -7.7 °C 29.89in /  1012.1hPa NNE 3.0mph /  4.8km/h 8.0mph /  12.9km/h 78% 0.00in /  0mm
22:39 23.9 °F /  -4.5 °C 18.0 °F /  -7.8 °C 29.89in /  1012.1hPa North 5.0mph /  8km/h 8.0mph /  12.9km/h 78% 0.00in /  0mm
22:44 23.9 °F /  -4.5 °C 18.0 °F /  -7.8 °C 29.89in /  1012.1hPa NNE 4.0mph /  6.4km/h 7.0mph /  11.3km/h 78% 0.00in /  0mm
22:49 23.8 °F /  -4.6 °C 18.2 °F /  -7.7 °C 29.88in /  1011.7hPa NNE 5.0mph /  8km/h 9.0mph /  14.5km/h 79% 0.00in /  0mm
22:54 23.6 °F /  -4.7 °C 18.3 °F /  -7.6 °C 29.88in /  1011.7hPa NNE 5.0mph /  8km/h 9.0mph /  14.5km/h 80% 0.00in /  0mm
22:59 23.4 °F /  -4.8 °C 18.7 °F /  -7.4 °C 29.89in /  1012.1hPa North 4.0mph /  6.4km/h 8.0mph /  12.9km/h 82% 0.00in /  0mm
23:04 23.2 °F /  -4.9 °C 18.8 °F /  -7.3 °C 29.89in /  1012.1hPa North 4.0mph /  6.4km/h 8.0mph /  12.9km/h 83% 0.00in /  0mm
23:09 22.9 °F /  -5.1 °C 18.8 °F /  -7.3 °C 29.89in /  1012.1hPa NNW 10.0mph /  16.1km/h 10.0mph /  16.1km/h 84% 0.00in /  0mm
23:14 22.5 °F /  -5.3 °C 18.7 °F /  -7.4 °C 29.89in /  1012.1hPa North 5.0mph /  8km/h 14.0mph /  22.5km/h 85% 0.00in /  0mm
23:19 22.0 °F /  -5.6 °C 18.2 °F /  -7.7 °C 29.89in /  1012.1hPa NNW 6.0mph /  9.7km/h 12.0mph /  19.3km/h 85% 0.00in /  0mm
23:24 21.7 °F /  -5.7 °C 18.2 °F /  -7.7 °C 29.89in /  1012.1hPa North 5.0mph /  8km/h 12.0mph /  19.3km/h 86% 0.00in /  0mm
23:29 21.6 °F /  -5.8 °C 18.1 °F /  -7.7 °C 29.89in /  1012.1hPa NNE 4.0mph /  6.4km/h 11.0mph /  17.7km/h 86% 0.00in /  0mm
23:34 21.4 °F /  -5.9 °C 17.9 °F /  -7.8 °C 29.89in /  1012.1hPa North 8.0mph /  12.9km/h 11.0mph /  17.7km/h 86% 0.00in /  0mm
23:39 21.2 °F /  -6 °C 17.9 °F /  -7.8 °C 29.89in /  1012.1hPa North 6.0mph /  9.7km/h 9.0mph /  14.5km/h 87% 0.00in /  0mm
23:44 21.1 °F /  -6.1 °C 17.8 °F /  -7.9 °C 29.89in /  1012.1hPa NNE 3.0mph /  4.8km/h 13.0mph /  20.9km/h 87% 0.00in /  0mm
23:49 20.9 °F /  -6.2 °C 17.6 °F /  -8 °C 29.90in /  1012.4hPa North 9.0mph /  14.5km/h 10.0mph /  16.1km/h 87% 0.00in /  0mm
23:54 20.7 °F /  -6.3 °C 17.4 °F /  -8.1 °C 29.89in /  1012.1hPa North 6.0mph /  9.7km/h 10.0mph /  16.1km/h 87% 0.00in /  0mm
23:59 20.7 °F /  -6.3 °C 17.4 °F /  -8.1 °C 29.89in /  1012.1hPa NNE 5.0mph /  8km/h 9.0mph /  14.5km/h 87% 0.00in /  0mm
Buffalo, New York, USA
Compliments of Weather Underground - 2.5 mb